sensor_id;sensor_type;location;lat;lon;timestamp;temperature;humidity
42617;DHT22;28250;52.320;0.360;2023-04-08T00:02:16;4.30;99.90
42617;DHT22;28250;52.320;0.360;2023-04-08T00:04:42;4.30;99.90
42617;DHT22;28250;52.320;0.360;2023-04-08T00:07:08;4.30;99.90
42617;DHT22;28250;52.320;0.360;2023-04-08T00:09:34;4.30;99.90
42617;DHT22;28250;52.320;0.360;2023-04-08T00:12:00;4.30;99.90
42617;DHT22;28250;52.320;0.360;2023-04-08T00:14:26;4.30;99.90
42617;DHT22;28250;52.320;0.360;2023-04-08T00:16:52;4.20;99.90
42617;DHT22;28250;52.320;0.360;2023-04-08T00:19:18;4.20;99.90
42617;DHT22;28250;52.320;0.360;2023-04-08T00:21:44;4.20;99.90
42617;DHT22;28250;52.320;0.360;2023-04-08T00:24:10;4.20;99.90
42617;DHT22;28250;52.320;0.360;2023-04-08T00:26:36;4.20;99.90
42617;DHT22;28250;52.320;0.360;2023-04-08T00:29:02;4.10;99.90
42617;DHT22;28250;52.320;0.360;2023-04-08T00:31:28;4.10;99.90
42617;DHT22;28250;52.320;0.360;2023-04-08T00:33:54;4.00;99.90
42617;DHT22;28250;52.320;0.360;2023-04-08T00:36:20;4.10;99.90
42617;DHT22;28250;52.320;0.360;2023-04-08T00:38:47;4.00;99.90
42617;DHT22;28250;52.320;0.360;2023-04-08T00:41:13;4.00;99.90
42617;DHT22;28250;52.320;0.360;2023-04-08T00:43:39;4.00;99.90
42617;DHT22;28250;52.320;0.360;2023-04-08T00:46:05;3.90;99.90
42617;DHT22;28250;52.320;0.360;2023-04-08T00:48:31;3.80;99.90
42617;DHT22;28250;52.320;0.360;2023-04-08T00:50:57;3.80;99.90
42617;DHT22;28250;52.320;0.360;2023-04-08T00:53:23;3.80;99.90
42617;DHT22;28250;52.320;0.360;2023-04-08T00:55:49;3.80;99.90
42617;DHT22;28250;52.320;0.360;2023-04-08T00:58:15;3.70;99.90
42617;DHT22;28250;52.320;0.360;2023-04-08T01:00:46;3.70;99.90
42617;DHT22;28250;52.320;0.360;2023-04-08T01:06:15;3.60;99.90
42617;DHT22;28250;52.320;0.360;2023-04-08T01:08:47;3.80;99.90
42617;DHT22;28250;52.320;0.360;2023-04-08T01:11:14;3.80;99.90
42617;DHT22;28250;52.320;0.360;2023-04-08T01:13:41;3.70;99.90
42617;DHT22;28250;52.320;0.360;2023-04-08T01:16:08;3.80;99.90
42617;DHT22;28250;52.320;0.360;2023-04-08T01:18:36;3.70;99.90
42617;DHT22;28250;52.320;0.360;2023-04-08T01:21:03;3.70;99.90
42617;DHT22;28250;52.320;0.360;2023-04-08T01:23:32;3.80;99.90
42617;DHT22;28250;52.320;0.360;2023-04-08T01:26:03;3.80;99.90
42617;DHT22;28250;52.320;0.360;2023-04-08T01:28:29;3.70;99.90
42617;DHT22;28250;52.320;0.360;2023-04-08T01:30:58;3.80;99.90
42617;DHT22;28250;52.320;0.360;2023-04-08T01:33:26;3.90;99.90
42617;DHT22;28250;52.320;0.360;2023-04-08T01:35:54;3.80;99.90
42617;DHT22;28250;52.320;0.360;2023-04-08T01:38:20;3.80;99.90
42617;DHT22;28250;52.320;0.360;2023-04-08T01:40:47;3.80;99.90
42617;DHT22;28250;52.320;0.360;2023-04-08T01:43:15;3.70;99.90
42617;DHT22;28250;52.320;0.360;2023-04-08T01:45:45;3.80;99.90
42617;DHT22;28250;52.320;0.360;2023-04-08T01:48:12;3.80;99.90
42617;DHT22;28250;52.320;0.360;2023-04-08T01:50:43;3.80;99.90
42617;DHT22;28250;52.320;0.360;2023-04-08T01:53:12;3.70;99.90
42617;DHT22;28250;52.320;0.360;2023-04-08T01:55:38;3.90;99.90
42617;DHT22;28250;52.320;0.360;2023-04-08T01:58:06;4.00;99.90
42617;DHT22;28250;52.320;0.360;2023-04-08T02:00:32;4.10;99.90
42617;DHT22;28250;52.320;0.360;2023-04-08T02:02:59;3.80;99.90
42617;DHT22;28250;52.320;0.360;2023-04-08T02:05:25;3.60;99.90
42617;DHT22;28250;52.320;0.360;2023-04-08T02:07:51;3.60;99.90
42617;DHT22;28250;52.320;0.360;2023-04-08T02:10:17;3.60;99.90
42617;DHT22;28250;52.320;0.360;2023-04-08T02:12:43;3.40;99.90
42617;DHT22;28250;52.320;0.360;2023-04-08T02:15:10;3.30;99.90
42617;DHT22;28250;52.320;0.360;2023-04-08T02:17:51;3.20;99.90
42617;DHT22;28250;52.320;0.360;2023-04-08T02:20:25;3.10;99.90
42617;DHT22;28250;52.320;0.360;2023-04-08T02:23:09;3.10;99.90
42617;DHT22;28250;52.320;0.360;2023-04-08T02:25:39;2.90;99.90
42617;DHT22;28250;52.320;0.360;2023-04-08T02:28:09;3.00;99.90
42617;DHT22;28250;52.320;0.360;2023-04-08T02:30:36;3.00;99.90
42617;DHT22;28250;52.320;0.360;2023-04-08T02:33:06;2.90;99.90
42617;DHT22;28250;52.320;0.360;2023-04-08T02:35:34;2.90;99.90
42617;DHT22;28250;52.320;0.360;2023-04-08T02:38:00;3.00;99.90
42617;DHT22;28250;52.320;0.360;2023-04-08T02:40:28;3.00;99.90
42617;DHT22;28250;52.320;0.360;2023-04-08T02:42:58;3.00;99.90
42617;DHT22;28250;52.320;0.360;2023-04-08T02:45:37;3.00;99.90
42617;DHT22;28250;52.320;0.360;2023-04-08T02:48:03;3.00;99.90
42617;DHT22;28250;52.320;0.360;2023-04-08T02:50:31;3.00;99.90
42617;DHT22;28250;52.320;0.360;2023-04-08T02:52:57;2.90;99.90
42617;DHT22;28250;52.320;0.360;2023-04-08T02:55:23;2.80;99.90
42617;DHT22;28250;52.320;0.360;2023-04-08T02:57:49;2.80;99.90
42617;DHT22;28250;52.320;0.360;2023-04-08T03:00:15;2.90;99.90
42617;DHT22;28250;52.320;0.360;2023-04-08T03:02:41;2.90;99.90
42617;DHT22;28250;52.320;0.360;2023-04-08T03:05:07;2.80;99.90
42617;DHT22;28250;52.320;0.360;2023-04-08T03:07:34;2.80;99.90
42617;DHT22;28250;52.320;0.360;2023-04-08T03:10:02;2.80;99.90
42617;DHT22;28250;52.320;0.360;2023-04-08T03:12:28;2.70;99.90
42617;DHT22;28250;52.320;0.360;2023-04-08T03:14:54;2.60;99.90
42617;DHT22;28250;52.320;0.360;2023-04-08T03:17:20;2.60;99.90
42617;DHT22;28250;52.320;0.360;2023-04-08T03:19:46;2.50;99.90
42617;DHT22;28250;52.320;0.360;2023-04-08T03:22:12;2.50;99.90
42617;DHT22;28250;52.320;0.360;2023-04-08T03:24:38;2.40;99.90
42617;DHT22;28250;52.320;0.360;2023-04-08T03:27:04;2.40;99.90
42617;DHT22;28250;52.320;0.360;2023-04-08T03:29:30;2.30;99.90
42617;DHT22;28250;52.320;0.360;2023-04-08T03:31:56;2.30;99.90
42617;DHT22;28250;52.320;0.360;2023-04-08T03:34:22;2.40;99.90
42617;DHT22;28250;52.320;0.360;2023-04-08T03:36:48;2.40;99.90
42617;DHT22;28250;52.320;0.360;2023-04-08T03:39:14;2.40;99.90
42617;DHT22;28250;52.320;0.360;2023-04-08T03:41:40;2.40;99.90
42617;DHT22;28250;52.320;0.360;2023-04-08T03:44:06;2.40;99.90
42617;DHT22;28250;52.320;0.360;2023-04-08T03:46:32;2.40;99.90
42617;DHT22;28250;52.320;0.360;2023-04-08T03:48:57;2.30;99.90
42617;DHT22;28250;52.320;0.360;2023-04-08T03:51:23;2.30;99.90
42617;DHT22;28250;52.320;0.360;2023-04-08T03:53:49;2.30;99.90
42617;DHT22;28250;52.320;0.360;2023-04-08T03:56:15;2.40;99.90
42617;DHT22;28250;52.320;0.360;2023-04-08T03:58:41;2.30;99.90
42617;DHT22;28250;52.320;0.360;2023-04-08T04:01:07;2.40;99.90
42617;DHT22;28250;52.320;0.360;2023-04-08T04:03:33;2.30;99.90
42617;DHT22;28250;52.320;0.360;2023-04-08T04:05:59;2.40;99.90
42617;DHT22;28250;52.320;0.360;2023-04-08T04:08:25;2.40;99.90
42617;DHT22;28250;52.320;0.360;2023-04-08T04:10:51;2.50;99.90
42617;DHT22;28250;52.320;0.360;2023-04-08T04:13:16;2.40;99.90
42617;DHT22;28250;52.320;0.360;2023-04-08T04:15:44;2.40;99.90
42617;DHT22;28250;52.320;0.360;2023-04-08T04:18:09;2.40;99.90
42617;DHT22;28250;52.320;0.360;2023-04-08T04:20:38;2.30;99.90
42617;DHT22;28250;52.320;0.360;2023-04-08T04:23:06;2.40;99.90
42617;DHT22;28250;52.320;0.360;2023-04-08T04:25:31;2.30;99.90
42617;DHT22;28250;52.320;0.360;2023-04-08T04:27:57;2.30;99.90
42617;DHT22;28250;52.320;0.360;2023-04-08T04:30:23;2.20;99.90
42617;DHT22;28250;52.320;0.360;2023-04-08T04:32:49;2.20;99.90
42617;DHT22;28250;52.320;0.360;2023-04-08T04:35:15;2.20;99.90
42617;DHT22;28250;52.320;0.360;2023-04-08T04:37:41;2.20;99.90
42617;DHT22;28250;52.320;0.360;2023-04-08T04:40:07;2.20;99.90
42617;DHT22;28250;52.320;0.360;2023-04-08T04:42:33;2.10;99.90
42617;DHT22;28250;52.320;0.360;2023-04-08T04:44:59;2.00;99.90
42617;DHT22;28250;52.320;0.360;2023-04-08T04:47:25;2.10;99.90
42617;DHT22;28250;52.320;0.360;2023-04-08T04:49:51;2.10;99.90
42617;DHT22;28250;52.320;0.360;2023-04-08T04:52:17;2.00;99.90
42617;DHT22;28250;52.320;0.360;2023-04-08T04:54:43;2.00;99.90
42617;DHT22;28250;52.320;0.360;2023-04-08T04:57:09;2.00;99.90
42617;DHT22;28250;52.320;0.360;2023-04-08T04:59:35;2.00;99.90
42617;DHT22;28250;52.320;0.360;2023-04-08T05:02:02;2.00;99.90
42617;DHT22;28250;52.320;0.360;2023-04-08T05:04:28;2.00;99.90
42617;DHT22;28250;52.320;0.360;2023-04-08T05:06:53;1.90;99.90
42617;DHT22;28250;52.320;0.360;2023-04-08T05:09:19;1.90;99.90
42617;DHT22;28250;52.320;0.360;2023-04-08T05:11:45;1.90;99.90
42617;DHT22;28250;52.320;0.360;2023-04-08T05:14:11;1.90;99.90
42617;DHT22;28250;52.320;0.360;2023-04-08T05:16:37;2.00;99.90
42617;DHT22;28250;52.320;0.360;2023-04-08T05:19:03;1.90;99.90
42617;DHT22;28250;52.320;0.360;2023-04-08T05:21:29;2.00;99.90
42617;DHT22;28250;52.320;0.360;2023-04-08T05:23:57;2.10;99.90
42617;DHT22;28250;52.320;0.360;2023-04-08T05:26:22;2.20;99.90
42617;DHT22;28250;52.320;0.360;2023-04-08T05:28:49;2.30;99.90
42617;DHT22;28250;52.320;0.360;2023-04-08T05:31:16;2.60;99.90
42617;DHT22;28250;52.320;0.360;2023-04-08T05:33:42;2.70;99.90
42617;DHT22;28250;52.320;0.360;2023-04-08T05:36:09;2.60;99.90
42617;DHT22;28250;52.320;0.360;2023-04-08T05:38:36;2.50;99.90
42617;DHT22;28250;52.320;0.360;2023-04-08T05:41:02;2.40;99.90
42617;DHT22;28250;52.320;0.360;2023-04-08T05:43:27;2.50;99.90
42617;DHT22;28250;52.320;0.360;2023-04-08T05:45:54;2.50;99.90
42617;DHT22;28250;52.320;0.360;2023-04-08T05:48:20;2.60;99.90
42617;DHT22;28250;52.320;0.360;2023-04-08T05:50:46;2.50;99.90
42617;DHT22;28250;52.320;0.360;2023-04-08T05:53:13;2.50;99.90
42617;DHT22;28250;52.320;0.360;2023-04-08T05:55:39;2.50;99.90
42617;DHT22;28250;52.320;0.360;2023-04-08T05:58:05;2.60;99.90
42617;DHT22;28250;52.320;0.360;2023-04-08T06:00:31;2.60;99.90
42617;DHT22;28250;52.320;0.360;2023-04-08T06:02:57;2.70;99.90
42617;DHT22;28250;52.320;0.360;2023-04-08T06:05:24;2.70;99.90
42617;DHT22;28250;52.320;0.360;2023-04-08T06:07:50;2.70;99.90
42617;DHT22;28250;52.320;0.360;2023-04-08T06:10:16;2.60;99.90
42617;DHT22;28250;52.320;0.360;2023-04-08T06:12:42;2.70;99.90
42617;DHT22;28250;52.320;0.360;2023-04-08T06:15:08;2.60;99.90
42617;DHT22;28250;52.320;0.360;2023-04-08T06:17:35;2.80;99.90
42617;DHT22;28250;52.320;0.360;2023-04-08T06:20:01;2.90;99.90
42617;DHT22;28250;52.320;0.360;2023-04-08T06:22:28;3.00;99.90
42617;DHT22;28250;52.320;0.360;2023-04-08T06:24:54;3.10;99.90
42617;DHT22;28250;52.320;0.360;2023-04-08T06:27:20;3.10;99.90
42617;DHT22;28250;52.320;0.360;2023-04-08T06:29:45;3.30;99.90
42617;DHT22;28250;52.320;0.360;2023-04-08T06:32:12;3.40;99.90
42617;DHT22;28250;52.320;0.360;2023-04-08T06:34:38;3.70;99.90
42617;DHT22;28250;52.320;0.360;2023-04-08T06:37:05;4.70;99.90
42617;DHT22;28250;52.320;0.360;2023-04-08T06:39:31;6.00;99.90
42617;DHT22;28250;52.320;0.360;2023-04-08T06:41:57;6.70;99.90
42617;DHT22;28250;52.320;0.360;2023-04-08T06:44:34;7.60;99.90
42617;DHT22;28250;52.320;0.360;2023-04-08T06:47:00;8.20;99.90
42617;DHT22;28250;52.320;0.360;2023-04-08T06:49:25;8.30;99.90
42617;DHT22;28250;52.320;0.360;2023-04-08T06:51:52;8.60;99.90
42617;DHT22;28250;52.320;0.360;2023-04-08T06:54:17;8.70;99.90
42617;DHT22;28250;52.320;0.360;2023-04-08T06:56:43;9.10;99.90
42617;DHT22;28250;52.320;0.360;2023-04-08T06:59:09;9.20;99.90
42617;DHT22;28250;52.320;0.360;2023-04-08T07:01:35;9.70;99.90
42617;DHT22;28250;52.320;0.360;2023-04-08T07:04:01;9.90;99.90
42617;DHT22;28250;52.320;0.360;2023-04-08T07:06:27;10.00;99.90
42617;DHT22;28250;52.320;0.360;2023-04-08T07:08:53;9.80;99.90
42617;DHT22;28250;52.320;0.360;2023-04-08T07:11:19;10.10;99.90
42617;DHT22;28250;52.320;0.360;2023-04-08T07:13:45;10.50;99.90
42617;DHT22;28250;52.320;0.360;2023-04-08T07:16:11;10.30;99.90
42617;DHT22;28250;52.320;0.360;2023-04-08T07:18:37;10.80;99.90
42617;DHT22;28250;52.320;0.360;2023-04-08T07:21:03;10.40;99.90
42617;DHT22;28250;52.320;0.360;2023-04-08T07:23:29;10.70;99.90
42617;DHT22;28250;52.320;0.360;2023-04-08T07:25:55;11.00;99.90
42617;DHT22;28250;52.320;0.360;2023-04-08T07:28:26;10.90;99.90
42617;DHT22;28250;52.320;0.360;2023-04-08T07:30:53;10.80;99.90
42617;DHT22;28250;52.320;0.360;2023-04-08T07:33:19;10.60;99.90
42617;DHT22;28250;52.320;0.360;2023-04-08T07:35:45;10.70;99.90
42617;DHT22;28250;52.320;0.360;2023-04-08T07:38:11;10.40;99.90
42617;DHT22;28250;52.320;0.360;2023-04-08T07:40:37;10.30;99.90
42617;DHT22;28250;52.320;0.360;2023-04-08T07:43:03;10.30;99.90
42617;DHT22;28250;52.320;0.360;2023-04-08T07:45:29;10.50;99.90
42617;DHT22;28250;52.320;0.360;2023-04-08T07:47:55;10.80;99.90
42617;DHT22;28250;52.320;0.360;2023-04-08T07:50:21;10.40;99.90
42617;DHT22;28250;52.320;0.360;2023-04-08T07:52:47;10.30;99.90
42617;DHT22;28250;52.320;0.360;2023-04-08T07:55:13;10.30;99.90
42617;DHT22;28250;52.320;0.360;2023-04-08T07:57:39;10.10;99.90
42617;DHT22;28250;52.320;0.360;2023-04-08T08:00:05;10.10;99.90
42617;DHT22;28250;52.320;0.360;2023-04-08T08:02:38;10.00;99.90
42617;DHT22;28250;52.320;0.360;2023-04-08T08:05:05;10.00;99.90
42617;DHT22;28250;52.320;0.360;2023-04-08T08:07:31;9.90;99.90
42617;DHT22;28250;52.320;0.360;2023-04-08T08:09:56;9.90;99.90
42617;DHT22;28250;52.320;0.360;2023-04-08T08:12:22;10.00;99.90
42617;DHT22;28250;52.320;0.360;2023-04-08T08:14:48;10.00;99.90
42617;DHT22;28250;52.320;0.360;2023-04-08T08:17:15;10.00;99.90
42617;DHT22;28250;52.320;0.360;2023-04-08T08:19:41;9.90;99.90
42617;DHT22;28250;52.320;0.360;2023-04-08T08:22:07;9.80;99.90
42617;DHT22;28250;52.320;0.360;2023-04-08T08:24:32;9.70;99.90
42617;DHT22;28250;52.320;0.360;2023-04-08T08:26:58;9.70;99.90
42617;DHT22;28250;52.320;0.360;2023-04-08T08:29:24;9.80;99.90
42617;DHT22;28250;52.320;0.360;2023-04-08T08:31:50;9.80;99.90
42617;DHT22;28250;52.320;0.360;2023-04-08T08:34:16;9.90;99.90
42617;DHT22;28250;52.320;0.360;2023-04-08T08:36:42;10.00;99.90
42617;DHT22;28250;52.320;0.360;2023-04-08T08:39:08;10.10;99.90
42617;DHT22;28250;52.320;0.360;2023-04-08T08:41:34;10.20;99.90
42617;DHT22;28250;52.320;0.360;2023-04-08T08:44:04;10.30;99.90
42617;DHT22;28250;52.320;0.360;2023-04-08T08:46:30;10.40;99.90
42617;DHT22;28250;52.320;0.360;2023-04-08T08:48:56;10.50;99.90
42617;DHT22;28250;52.320;0.360;2023-04-08T08:51:22;10.30;99.90
42617;DHT22;28250;52.320;0.360;2023-04-08T08:53:48;10.60;99.90
42617;DHT22;28250;52.320;0.360;2023-04-08T08:56:14;10.90;99.90
42617;DHT22;28250;52.320;0.360;2023-04-08T08:58:40;11.00;99.90
42617;DHT22;28250;52.320;0.360;2023-04-08T09:04:10;11.00;99.90
42617;DHT22;28250;52.320;0.360;2023-04-08T09:06:41;11.10;99.90
42617;DHT22;28250;52.320;0.360;2023-04-08T09:09:08;11.10;99.90
42617;DHT22;28250;52.320;0.360;2023-04-08T09:11:37;11.10;99.90
42617;DHT22;28250;52.320;0.360;2023-04-08T09:14:05;11.10;99.90
42617;DHT22;28250;52.320;0.360;2023-04-08T09:16:46;11.30;99.90
42617;DHT22;28250;52.320;0.360;2023-04-08T09:19:13;11.40;99.90
42617;DHT22;28250;52.320;0.360;2023-04-08T09:21:39;11.40;99.90
42617;DHT22;28250;52.320;0.360;2023-04-08T09:24:06;11.60;99.90
42617;DHT22;28250;52.320;0.360;2023-04-08T09:26:32;11.60;99.90
42617;DHT22;28250;52.320;0.360;2023-04-08T09:31:28;12.10;99.90
42617;DHT22;28250;52.320;0.360;2023-04-08T09:33:56;11.50;99.90
42617;DHT22;28250;52.320;0.360;2023-04-08T09:36:24;11.60;99.90
42617;DHT22;28250;52.320;0.360;2023-04-08T09:38:53;11.70;99.90
42617;DHT22;28250;52.320;0.360;2023-04-08T09:41:20;12.10;99.90
42617;DHT22;28250;52.320;0.360;2023-04-08T09:43:56;12.10;99.90
42617;DHT22;28250;52.320;0.360;2023-04-08T09:49:09;11.70;99.90
42617;DHT22;28250;52.320;0.360;2023-04-08T09:51:44;12.00;99.90
42617;DHT22;28250;52.320;0.360;2023-04-08T09:54:15;12.00;99.90
42617;DHT22;28250;52.320;0.360;2023-04-08T09:56:50;12.40;99.90
42617;DHT22;28250;52.320;0.360;2023-04-08T09:59:21;12.60;99.90
42617;DHT22;28250;52.320;0.360;2023-04-08T10:01:52;12.80;99.90
42617;DHT22;28250;52.320;0.360;2023-04-08T10:04:19;12.10;99.90
42617;DHT22;28250;52.320;0.360;2023-04-08T10:06:53;11.60;99.90
42617;DHT22;28250;52.320;0.360;2023-04-08T10:09:22;11.70;99.90
42617;DHT22;28250;52.320;0.360;2023-04-08T10:11:49;12.60;99.90
42617;DHT22;28250;52.320;0.360;2023-04-08T10:14:15;13.50;99.90
42617;DHT22;28250;52.320;0.360;2023-04-08T10:16:41;13.50;99.90
42617;DHT22;28250;52.320;0.360;2023-04-08T10:19:49;13.60;99.90
42617;DHT22;28250;52.320;0.360;2023-04-08T10:27:52;14.20;99.90
42617;DHT22;28250;52.320;0.360;2023-04-08T10:32:54;14.20;99.90
42617;DHT22;28250;52.320;0.360;2023-04-08T10:35:31;14.70;99.90
42617;DHT22;28250;52.320;0.360;2023-04-08T10:37:58;14.80;99.90
42617;DHT22;28250;52.320;0.360;2023-04-08T10:40:24;13.70;99.90
42617;DHT22;28250;52.320;0.360;2023-04-08T10:42:56;14.20;99.90
42617;DHT22;28250;52.320;0.360;2023-04-08T10:45:23;14.70;99.90
42617;DHT22;28250;52.320;0.360;2023-04-08T10:47:49;14.90;99.90
42617;DHT22;28250;52.320;0.360;2023-04-08T10:50:16;15.50;99.90
42617;DHT22;28250;52.320;0.360;2023-04-08T10:55:15;15.20;99.90
42617;DHT22;28250;52.320;0.360;2023-04-08T10:57:42;14.60;99.90
42617;DHT22;28250;52.320;0.360;2023-04-08T11:00:14;14.90;99.90
42617;DHT22;28250;52.320;0.360;2023-04-08T11:02:42;15.40;99.90
42617;DHT22;28250;52.320;0.360;2023-04-08T11:05:08;15.50;99.90
42617;DHT22;28250;52.320;0.360;2023-04-08T11:07:41;15.80;99.90
42617;DHT22;28250;52.320;0.360;2023-04-08T11:10:07;15.70;99.90
42617;DHT22;28250;52.320;0.360;2023-04-08T11:12:34;15.70;99.90
42617;DHT22;28250;52.320;0.360;2023-04-08T11:15:03;15.20;99.90
42617;DHT22;28250;52.320;0.360;2023-04-08T11:17:30;16.20;99.90
42617;DHT22;28250;52.320;0.360;2023-04-08T11:19:56;16.70;99.90
42617;DHT22;28250;52.320;0.360;2023-04-08T11:22:27;16.80;99.90
42617;DHT22;28250;52.320;0.360;2023-04-08T11:24:54;16.60;99.90
42617;DHT22;28250;52.320;0.360;2023-04-08T11:27:21;16.70;99.90
42617;DHT22;28250;52.320;0.360;2023-04-08T11:29:50;15.70;99.90
42617;DHT22;28250;52.320;0.360;2023-04-08T11:32:18;15.80;99.90
42617;DHT22;28250;52.320;0.360;2023-04-08T11:34:44;16.60;99.90
42617;DHT22;28250;52.320;0.360;2023-04-08T11:37:11;16.70;99.90
42617;DHT22;28250;52.320;0.360;2023-04-08T11:39:44;16.60;99.90
42617;DHT22;28250;52.320;0.360;2023-04-08T11:42:27;16.90;99.90
42617;DHT22;28250;52.320;0.360;2023-04-08T11:44:56;16.00;99.90
42617;DHT22;28250;52.320;0.360;2023-04-08T11:47:32;16.20;99.90
42617;DHT22;28250;52.320;0.360;2023-04-08T11:49:58;16.50;99.90
42617;DHT22;28250;52.320;0.360;2023-04-08T11:52:41;16.10;99.90
42617;DHT22;28250;52.320;0.360;2023-04-08T11:55:49;15.50;99.90
42617;DHT22;28250;52.320;0.360;2023-04-08T11:58:00;15.60;99.90
42617;DHT22;28250;52.320;0.360;2023-04-08T12:00:27;15.20;99.90
42617;DHT22;28250;52.320;0.360;2023-04-08T12:02:54;15.60;99.90
42617;DHT22;28250;52.320;0.360;2023-04-08T12:05:20;15.30;99.90
42617;DHT22;28250;52.320;0.360;2023-04-08T12:07:46;15.60;99.90
42617;DHT22;28250;52.320;0.360;2023-04-08T12:10:12;15.90;99.90
42617;DHT22;28250;52.320;0.360;2023-04-08T12:12:38;16.30;99.90
42617;DHT22;28250;52.320;0.360;2023-04-08T12:15:05;16.90;99.90
42617;DHT22;28250;52.320;0.360;2023-04-08T12:17:33;16.70;99.90
42617;DHT22;28250;52.320;0.360;2023-04-08T12:19:59;16.20;99.90
42617;DHT22;28250;52.320;0.360;2023-04-08T12:22:25;15.80;99.90
42617;DHT22;28250;52.320;0.360;2023-04-08T12:24:51;15.70;99.90
42617;DHT22;28250;52.320;0.360;2023-04-08T12:27:17;15.80;99.90
42617;DHT22;28250;52.320;0.360;2023-04-08T12:29:43;16.40;99.90
42617;DHT22;28250;52.320;0.360;2023-04-08T12:32:10;16.70;99.90
42617;DHT22;28250;52.320;0.360;2023-04-08T12:34:36;17.20;99.90
42617;DHT22;28250;52.320;0.360;2023-04-08T12:37:02;17.90;99.90
42617;DHT22;28250;52.320;0.360;2023-04-08T12:39:28;16.90;99.90
42617;DHT22;28250;52.320;0.360;2023-04-08T12:41:54;16.20;99.90
42617;DHT22;28250;52.320;0.360;2023-04-08T12:44:21;16.00;99.90
42617;DHT22;28250;52.320;0.360;2023-04-08T12:46:47;16.10;99.90
42617;DHT22;28250;52.320;0.360;2023-04-08T12:49:13;15.90;99.90
42617;DHT22;28250;52.320;0.360;2023-04-08T12:51:39;15.60;99.90
42617;DHT22;28250;52.320;0.360;2023-04-08T12:54:05;14.20;99.90
42617;DHT22;28250;52.320;0.360;2023-04-08T12:56:31;14.60;99.90
42617;DHT22;28250;52.320;0.360;2023-04-08T12:58:57;14.30;99.90
42617;DHT22;28250;52.320;0.360;2023-04-08T13:01:24;15.30;99.90
42617;DHT22;28250;52.320;0.360;2023-04-08T13:03:50;16.30;99.90
42617;DHT22;28250;52.320;0.360;2023-04-08T13:06:16;16.80;99.90
42617;DHT22;28250;52.320;0.360;2023-04-08T13:08:42;16.80;99.90
42617;DHT22;28250;52.320;0.360;2023-04-08T13:11:08;17.10;99.90
42617;DHT22;28250;52.320;0.360;2023-04-08T13:13:34;16.30;99.90
42617;DHT22;28250;52.320;0.360;2023-04-08T13:15:59;16.60;99.90
42617;DHT22;28250;52.320;0.360;2023-04-08T13:18:25;17.10;99.90
42617;DHT22;28250;52.320;0.360;2023-04-08T13:20:52;17.10;99.90
42617;DHT22;28250;52.320;0.360;2023-04-08T13:23:19;17.30;99.90
42617;DHT22;28250;52.320;0.360;2023-04-08T13:25:45;17.40;99.90
42617;DHT22;28250;52.320;0.360;2023-04-08T13:28:11;18.40;99.90
42617;DHT22;28250;52.320;0.360;2023-04-08T13:30:37;19.00;99.90
42617;DHT22;28250;52.320;0.360;2023-04-08T13:33:03;19.00;99.90
42617;DHT22;28250;52.320;0.360;2023-04-08T13:35:29;19.40;99.90
42617;DHT22;28250;52.320;0.360;2023-04-08T13:37:55;19.10;99.90
42617;DHT22;28250;52.320;0.360;2023-04-08T13:40:21;18.70;99.90
42617;DHT22;28250;52.320;0.360;2023-04-08T13:42:47;18.50;99.90
42617;DHT22;28250;52.320;0.360;2023-04-08T13:45:13;18.70;99.90
42617;DHT22;28250;52.320;0.360;2023-04-08T13:47:39;17.70;99.90
42617;DHT22;28250;52.320;0.360;2023-04-08T13:50:05;18.40;99.90
42617;DHT22;28250;52.320;0.360;2023-04-08T13:52:32;18.60;99.90
42617;DHT22;28250;52.320;0.360;2023-04-08T13:54:58;19.10;99.90
42617;DHT22;28250;52.320;0.360;2023-04-08T13:57:24;18.60;99.90
42617;DHT22;28250;52.320;0.360;2023-04-08T13:59:50;18.20;99.90
42617;DHT22;28250;52.320;0.360;2023-04-08T14:02:16;18.90;99.90
42617;DHT22;28250;52.320;0.360;2023-04-08T14:04:42;18.50;99.90
42617;DHT22;28250;52.320;0.360;2023-04-08T14:07:10;19.10;99.90
42617;DHT22;28250;52.320;0.360;2023-04-08T14:09:37;18.40;99.90
42617;DHT22;28250;52.320;0.360;2023-04-08T14:12:03;18.70;99.90
42617;DHT22;28250;52.320;0.360;2023-04-08T14:14:28;19.40;99.90
42617;DHT22;28250;52.320;0.360;2023-04-08T14:16:54;19.00;99.90
42617;DHT22;28250;52.320;0.360;2023-04-08T14:19:20;18.70;99.90
42617;DHT22;28250;52.320;0.360;2023-04-08T14:21:47;18.50;99.90
42617;DHT22;28250;52.320;0.360;2023-04-08T14:24:12;18.20;99.90
42617;DHT22;28250;52.320;0.360;2023-04-08T14:26:38;18.20;99.90
42617;DHT22;28250;52.320;0.360;2023-04-08T14:29:05;18.00;99.90
42617;DHT22;28250;52.320;0.360;2023-04-08T14:31:32;17.90;99.90
42617;DHT22;28250;52.320;0.360;2023-04-08T14:33:58;17.60;99.90
42617;DHT22;28250;52.320;0.360;2023-04-08T14:36:25;17.60;99.90
42617;DHT22;28250;52.320;0.360;2023-04-08T14:38:52;17.60;99.90
42617;DHT22;28250;52.320;0.360;2023-04-08T14:41:19;17.70;99.90
42617;DHT22;28250;52.320;0.360;2023-04-08T14:43:46;17.20;99.90
42617;DHT22;28250;52.320;0.360;2023-04-08T14:46:12;17.10;99.90
42617;DHT22;28250;52.320;0.360;2023-04-08T14:48:38;16.60;99.90
42617;DHT22;28250;52.320;0.360;2023-04-08T14:51:04;16.80;99.90
42617;DHT22;28250;52.320;0.360;2023-04-08T14:53:30;17.00;99.90
42617;DHT22;28250;52.320;0.360;2023-04-08T14:55:58;16.90;99.90
42617;DHT22;28250;52.320;0.360;2023-04-08T14:58:24;16.80;99.90
42617;DHT22;28250;52.320;0.360;2023-04-08T15:00:50;16.80;99.90
42617;DHT22;28250;52.320;0.360;2023-04-08T15:03:16;16.70;99.90
42617;DHT22;28250;52.320;0.360;2023-04-08T15:05:54;16.50;99.90
42617;DHT22;28250;52.320;0.360;2023-04-08T15:08:20;16.40;99.90
42617;DHT22;28250;52.320;0.360;2023-04-08T15:10:46;16.50;99.90
42617;DHT22;28250;52.320;0.360;2023-04-08T15:13:12;16.50;99.90
42617;DHT22;28250;52.320;0.360;2023-04-08T15:15:38;16.60;99.90
42617;DHT22;28250;52.320;0.360;2023-04-08T15:18:04;16.10;99.90
42617;DHT22;28250;52.320;0.360;2023-04-08T15:20:30;15.80;99.90
42617;DHT22;28250;52.320;0.360;2023-04-08T15:22:56;15.70;99.90
42617;DHT22;28250;52.320;0.360;2023-04-08T15:25:22;15.90;99.90
42617;DHT22;28250;52.320;0.360;2023-04-08T15:27:47;15.80;99.90
42617;DHT22;28250;52.320;0.360;2023-04-08T15:30:13;15.50;99.90
42617;DHT22;28250;52.320;0.360;2023-04-08T15:32:39;15.60;99.90
42617;DHT22;28250;52.320;0.360;2023-04-08T15:35:06;14.90;99.90
42617;DHT22;28250;52.320;0.360;2023-04-08T15:37:32;14.80;99.90
42617;DHT22;28250;52.320;0.360;2023-04-08T15:39:58;14.30;99.90
42617;DHT22;28250;52.320;0.360;2023-04-08T15:42:24;14.20;99.90
42617;DHT22;28250;52.320;0.360;2023-04-08T15:44:50;14.30;99.90
42617;DHT22;28250;52.320;0.360;2023-04-08T15:47:16;14.50;99.90
42617;DHT22;28250;52.320;0.360;2023-04-08T15:49:43;14.50;99.90
42617;DHT22;28250;52.320;0.360;2023-04-08T15:52:09;14.40;99.90
42617;DHT22;28250;52.320;0.360;2023-04-08T15:54:35;14.90;99.90
42617;DHT22;28250;52.320;0.360;2023-04-08T15:57:01;14.60;99.90
42617;DHT22;28250;52.320;0.360;2023-04-08T15:59:30;14.40;99.90